Aviation Digital Data Service (ADDS)

Output produced by METARs form (1338 UTC 01 September 2014)
found at http://www.aviationweather.gov/adds/metars/
 
KROW 011251Z 03003KT 10SM CLR 18/08 A2996 RMK AO2 SLP074 T01780083
KROW 011151Z 24007KT 10SM CLR 18/07 A2993 RMK AO2 SLP064 T01830072 10256 20178 53009
KROW 011051Z AUTO 22004KT 10SM CLR 19/08 A2992 RMK AO2 SLP058 T01890078
KROW 010951Z AUTO 18007KT 10SM CLR 20/08 A2991 RMK AO2 SLP054 T02000078
KROW 010851Z AUTO 18009KT 10SM CLR 23/07 A2991 RMK AO2 SLP049 T02280067 50006
KROW 010751Z AUTO 18007KT 10SM CLR 23/08 A2991 RMK AO2 SLP051 T02330078
KROW 010651Z AUTO 25008KT 10SM CLR 24/08 A2989 RMK AO2 SLP043 T02440078 403890167
KROW 010551Z AUTO 25009KT 10SM CLR 25/08 A2989 RMK AO2 SLP044 T02500078 10372 20239 50003
KROW 010451Z AUTO 22007KT 10SM CLR 24/08 A2990 RMK AO2 SLP050 T02440078
KROW 010351Z AUTO 26008KT 10SM CLR 28/07 A2989 RMK AO2 SLP045 T02830072
KROW 010251Z AUTO 26006KT 10SM CLR 30/07 A2988 RMK AO2 SLP043 T03000072 53006
KROW 010151Z 26006KT 10SM CLR 32/07 A2986 RMK AO2 SLP040 T03220067
KROW 010051Z 25009KT 10SM CLR 36/06 A2985 RMK AO2 SLP039 T03610056
KROW 312351Z 24011KT 10SM CLR 37/06 A2986 RMK AO2 SLP036 T03720061 10389 20344 56011
KROW 312251Z 25010KT 10SM CLR 38/06 A2986 RMK AO2 SLP037 T03830061
KROW 312151Z 23009G15KT 10SM CLR 38/06 A2987 RMK AO2 SLP039 T03830061
KROW 312051Z 27007G19KT 10SM CLR 38/06 A2989 RMK AO2 SLP047 T03830056 56024
KROW 311951Z 23009G16KT 10SM CLR 38/06 A2991 RMK AO2 SLP054 T03780056
KROW 311851Z 12007G16KT 090V150 10SM CLR 36/08 A2993 RMK AO2 SLP061 T03610078
KROW 311751Z 12008KT 10SM CLR 34/12 A2997 RMK AO2 SLP075 T03440117 10344 20167 58009
KROW 311651Z VRB03KT 10SM CLR 32/10 A2999 RMK AO2 SLP084 T03170100
KROW 311551Z 17011KT 10SM CLR 30/11 A3001 RMK AO2 SLP088 T03000106
KROW 311451Z 18009KT 10SM CLR 26/13 A3000 RMK AO2 SLP087 T02610128 50002
KROW 311351Z 18005KT 10SM CLR 22/12 A3001 RMK AO2 SLP094 T02170117
KROW 011124Z 0112/0212 21006KT P6SM SKC 
     FM011700 36007KT P6SM SKC 
     FM012100 20007KT P6SM SKC 
     FM020200 VRB05KT P6SM SKC